createdAt,value
2023-05-20T00:01:20.650Z,11.21
2023-05-20T00:03:47.830Z,11.16
2023-05-20T00:06:15.035Z,11.07
2023-05-20T00:08:42.152Z,10.96
2023-05-20T00:11:09.302Z,10.86
2023-05-20T00:13:36.327Z,10.79
2023-05-20T00:16:03.459Z,10.72
2023-05-20T00:18:30.936Z,10.65
2023-05-20T00:20:58.551Z,10.59
2023-05-20T00:23:25.568Z,10.54
2023-05-20T00:25:52.572Z,10.52
2023-05-20T00:28:20.042Z,10.51
2023-05-20T00:30:47.368Z,10.50
2023-05-20T00:33:14.438Z,10.52
2023-05-20T00:35:41.526Z,10.57
2023-05-20T00:38:08.544Z,10.62
2023-05-20T00:40:35.656Z,10.68
2023-05-20T00:43:03.288Z,10.74
2023-05-20T00:45:31.224Z,10.77
2023-05-20T00:48:01.758Z,10.78
2023-05-20T00:50:29.223Z,10.81
2023-05-20T00:52:56.524Z,10.84
2023-05-20T00:55:23.714Z,10.86
2023-05-20T00:57:51.048Z,10.86
2023-05-20T01:00:18.322Z,10.87
2023-05-20T01:02:45.459Z,10.90
2023-05-20T01:05:12.614Z,10.92
2023-05-20T01:07:40.015Z,10.89
2023-05-20T01:10:07.718Z,10.83
2023-05-20T01:13:02.338Z,10.76
2023-05-20T01:15:29.597Z,10.68
2023-05-20T01:18:01.739Z,10.64
2023-05-20T01:20:29.509Z,10.58
2023-05-20T01:22:57.160Z,10.53
2023-05-20T01:25:25.302Z,10.48
2023-05-20T01:27:53.087Z,10.43
2023-05-20T01:30:21.036Z,10.39
2023-05-20T01:32:54.666Z,10.36
2023-05-20T01:35:23.157Z,10.33
2023-05-20T01:37:51.106Z,10.32
2023-05-20T01:40:18.392Z,10.29
2023-05-20T01:42:46.234Z,10.28
2023-05-20T01:45:13.704Z,10.31
2023-05-20T01:47:41.111Z,10.38
2023-05-20T01:50:09.078Z,10.45
2023-05-20T01:52:36.631Z,10.49
2023-05-20T01:55:03.980Z,10.46
2023-05-20T01:57:31.229Z,10.41
2023-05-20T01:59:58.747Z,10.35
2023-05-20T02:02:26.558Z,10.24
2023-05-20T02:04:54.399Z,10.17
2023-05-20T02:07:21.520Z,10.17
2023-05-20T02:09:48.670Z,10.19
2023-05-20T02:12:18.761Z,10.29
2023-05-20T02:14:47.142Z,10.37
2023-05-20T02:17:19.253Z,10.36
2023-05-20T02:19:47.346Z,10.33
2023-05-20T02:22:14.837Z,10.33
2023-05-20T02:24:43.933Z,10.35
2023-05-20T02:27:11.113Z,10.34
2023-05-20T02:29:38.212Z,10.35
2023-05-20T02:32:05.703Z,10.40
2023-05-20T02:34:33.249Z,10.49
2023-05-20T02:37:00.496Z,10.60
2023-05-20T02:39:28.777Z,10.78
2023-05-20T02:41:56.585Z,11.00
2023-05-20T02:44:24.143Z,11.31
2023-05-20T02:46:51.292Z,11.75
2023-05-20T02:49:18.435Z,12.26
2023-05-20T02:51:45.853Z,12.78
2023-05-20T02:54:13.135Z,13.17
2023-05-20T02:56:40.518Z,13.35
2023-05-20T02:59:07.600Z,13.42
2023-05-20T03:01:36.261Z,13.45
2023-05-20T03:04:03.760Z,13.52
2023-05-20T03:06:32.224Z,13.59
2023-05-20T03:08:59.697Z,13.72
2023-05-20T03:11:26.954Z,14.03
2023-05-20T03:13:54.049Z,14.58
2023-05-20T03:16:21.180Z,15.21
2023-05-20T03:18:48.617Z,15.80
2023-05-20T03:21:15.986Z,16.35
2023-05-20T03:23:43.691Z,16.89
2023-05-20T03:26:10.883Z,17.42
2023-05-20T03:28:38.038Z,17.87
2023-05-20T03:31:05.471Z,18.31
2023-05-20T03:33:34.895Z,18.77
2023-05-20T03:36:02.160Z,19.18
2023-05-20T03:38:29.516Z,19.60
2023-05-20T03:40:56.573Z,20.04
2023-05-20T03:43:23.736Z,20.43
2023-05-20T03:45:51.297Z,20.76
2023-05-20T03:48:18.471Z,21.06
2023-05-20T03:50:46.304Z,21.30
2023-05-20T03:53:13.311Z,21.52
2023-05-20T03:55:42.696Z,21.69
2023-05-20T03:58:10.827Z,21.83
2023-05-20T04:00:37.878Z,21.88
2023-05-20T04:03:06.080Z,21.80
2023-05-20T04:05:33.596Z,21.84
2023-05-20T04:08:01.362Z,22.01
2023-05-20T04:10:28.425Z,22.16
2023-05-20T04:12:55.795Z,22.26
2023-05-20T04:15:24.174Z,22.35
2023-05-20T04:17:56.392Z,22.44
2023-05-20T04:20:24.698Z,22.44
2023-05-20T04:22:55.376Z,22.40
2023-05-20T04:25:22.452Z,22.30
2023-05-20T04:27:50.316Z,22.04
2023-05-20T04:30:18.805Z,21.96
2023-05-20T04:32:45.938Z,21.84
2023-05-20T04:35:14.132Z,21.73
2023-05-20T04:37:44.893Z,21.71
2023-05-20T04:40:13.952Z,21.80
2023-05-20T04:42:41.433Z,22.00
2023-05-20T04:45:08.985Z,22.07
2023-05-20T04:47:39.344Z,22.01
2023-05-20T04:50:11.091Z,21.99
2023-05-20T04:52:42.068Z,22.20
2023-05-20T04:55:12.742Z,22.61
2023-05-20T04:57:42.222Z,22.85
2023-05-20T05:00:11.313Z,23.18
2023-05-20T05:02:38.617Z,23.70
2023-05-20T05:05:06.378Z,24.21
2023-05-20T05:07:33.795Z,24.55
2023-05-20T05:10:01.535Z,24.59
2023-05-20T05:12:30.896Z,24.51
2023-05-20T05:14:59.043Z,24.63
2023-05-20T05:17:26.565Z,24.88
2023-05-20T05:19:53.765Z,25.18
2023-05-20T05:22:21.881Z,25.46
2023-05-20T05:24:49.464Z,25.65
2023-05-20T05:27:17.078Z,25.81
2023-05-20T05:29:44.189Z,26.00
2023-05-20T05:32:11.420Z,26.15
2023-05-20T05:34:38.545Z,26.23
2023-05-20T05:37:05.681Z,26.32
2023-05-20T05:39:33.030Z,26.39
2023-05-20T05:42:00.195Z,26.31
2023-05-20T05:44:27.933Z,26.26
2023-05-20T05:46:55.125Z,26.25
2023-05-20T05:49:22.355Z,26.20
2023-05-20T05:51:50.849Z,26.11
2023-05-20T05:54:19.512Z,25.90
2023-05-20T05:56:46.845Z,25.55
2023-05-20T05:59:13.997Z,25.25
2023-05-20T06:01:41.074Z,25.13
2023-05-20T06:04:08.485Z,25.03
2023-05-20T06:06:36.145Z,24.99
2023-05-20T06:09:03.501Z,24.83
2023-05-20T06:11:30.601Z,24.52
2023-05-20T06:13:58.910Z,24.29
2023-05-20T06:16:26.077Z,24.20
2023-05-20T06:18:57.396Z,24.13
2023-05-20T06:21:24.744Z,23.98
2023-05-20T06:23:51.825Z,23.90
2023-05-20T06:26:19.030Z,23.83
2023-05-20T06:28:46.912Z,23.77
2023-05-20T06:31:13.968Z,23.76
2023-05-20T06:33:41.485Z,23.81
2023-05-20T06:36:12.009Z,23.93
2023-05-20T06:38:39.085Z,24.12
2023-05-20T06:41:06.682Z,24.38
2023-05-20T06:43:34.136Z,24.55
2023-05-20T06:46:05.752Z,24.60
2023-05-20T06:48:50.555Z,24.65
2023-05-20T06:51:17.861Z,24.74
2023-05-20T06:53:47.067Z,24.73
2023-05-20T06:56:14.922Z,24.68
2023-05-20T06:58:41.983Z,24.69
2023-05-20T07:01:09.349Z,24.75
2023-05-20T07:03:36.718Z,24.73
2023-05-20T07:06:03.936Z,24.70
2023-05-20T07:08:31.436Z,24.71
2023-05-20T07:10:58.800Z,24.72
2023-05-20T07:13:26.524Z,24.77
2023-05-20T07:15:53.803Z,24.87
2023-05-20T07:18:21.985Z,24.99
2023-05-20T07:20:53.317Z,25.11
2023-05-20T07:23:43.628Z,25.22
2023-05-20T07:26:10.786Z,25.32
2023-05-20T07:28:38.863Z,25.32
2023-05-20T07:31:06.076Z,25.31
2023-05-20T07:33:38.954Z,25.44
2023-05-20T07:36:07.183Z,25.65
2023-05-20T07:38:35.853Z,25.86
2023-05-20T07:41:07.050Z,25.97
2023-05-20T07:43:34.362Z,26.02
2023-05-20T07:46:03.045Z,26.04
2023-05-20T07:48:30.405Z,26.20
2023-05-20T07:50:59.455Z,26.40
2023-05-20T07:53:27.605Z,26.58
2023-05-20T07:55:55.025Z,26.64
2023-05-20T07:58:22.307Z,26.70
2023-05-20T08:00:50.250Z,26.78
2023-05-20T08:03:17.689Z,26.84
2023-05-20T08:06:14.411Z,26.85
2023-05-20T08:08:43.400Z,26.77
2023-05-20T08:11:17.581Z,26.67
2023-05-20T08:13:44.658Z,26.66
2023-05-20T08:16:12.080Z,26.83
2023-05-20T08:18:39.600Z,27.03
2023-05-20T08:21:10.257Z,27.17
2023-05-20T08:23:40.145Z,27.29
2023-05-20T08:26:08.049Z,27.32
2023-05-20T08:28:38.231Z,27.04
2023-05-20T08:31:05.519Z,26.70
2023-05-20T08:33:32.936Z,26.72
2023-05-20T08:36:00.130Z,26.85
2023-05-20T08:38:27.304Z,26.95
2023-05-20T08:40:56.009Z,27.07
2023-05-20T08:43:24.021Z,27.06
2023-05-20T08:45:55.036Z,27.04
2023-05-20T08:48:24.032Z,27.09
2023-05-20T08:50:51.840Z,27.16
2023-05-20T08:53:19.439Z,27.27
2023-05-20T08:55:47.430Z,27.48
2023-05-20T08:58:16.165Z,27.74
2023-05-20T09:00:43.392Z,28.02
2023-05-20T09:03:10.542Z,28.23
2023-05-20T09:05:37.797Z,28.32
2023-05-20T09:08:09.042Z,28.41
2023-05-20T09:10:36.773Z,28.52
2023-05-20T09:13:05.038Z,28.58
2023-05-20T09:15:33.481Z,28.50
2023-05-20T09:18:05.866Z,28.50
2023-05-20T09:20:34.807Z,28.54
2023-05-20T09:23:02.553Z,28.56
2023-05-20T09:25:29.793Z,28.58
2023-05-20T09:29:34.778Z,28.57
2023-05-20T09:32:02.529Z,28.50
2023-05-20T09:34:29.640Z,28.47
2023-05-20T09:36:56.708Z,28.18
2023-05-20T09:39:30.897Z,27.79
2023-05-20T09:41:58.533Z,27.43
2023-05-20T09:44:25.798Z,27.10
2023-05-20T09:46:53.496Z,26.91
2023-05-20T09:49:20.680Z,26.93
2023-05-20T09:51:47.707Z,27.20
2023-05-20T09:54:15.305Z,27.54
2023-05-20T09:56:43.023Z,27.90
2023-05-20T09:59:10.133Z,28.11
2023-05-20T10:01:37.311Z,27.99
2023-05-20T10:04:05.796Z,27.68
2023-05-20T10:06:51.553Z,27.32
2023-05-20T10:09:21.806Z,27.12
2023-05-20T10:12:08.257Z,27.28
2023-05-20T10:15:01.836Z,27.60
2023-05-20T10:17:38.717Z,27.84
2023-05-20T10:20:09.397Z,28.15
2023-05-20T10:22:36.591Z,28.53
2023-05-20T10:25:08.193Z,28.86
2023-05-20T10:27:48.020Z,29.03
2023-05-20T10:30:19.840Z,28.74
2023-05-20T10:32:57.724Z,28.50
2023-05-20T10:35:28.251Z,28.47
2023-05-20T10:37:56.284Z,28.29
2023-05-20T10:40:23.510Z,28.11
2023-05-20T10:42:50.590Z,27.96
2023-05-20T10:45:30.264Z,27.79
2023-05-20T10:47:58.150Z,27.48
2023-05-20T10:50:35.552Z,27.22
2023-05-20T10:53:08.206Z,27.09
2023-05-20T10:55:40.919Z,27.00
2023-05-20T10:58:08.128Z,26.90
2023-05-20T11:00:37.376Z,26.81
2023-05-20T11:03:05.927Z,26.84
2023-05-20T11:05:33.771Z,27.18
2023-05-20T11:08:04.438Z,27.63
2023-05-20T11:10:36.408Z,28.06
2023-05-20T11:13:04.817Z,28.37
2023-05-20T11:15:32.385Z,28.57
2023-05-20T11:18:02.234Z,28.67
2023-05-20T11:20:29.883Z,28.60
2023-05-20T11:22:57.092Z,28.25
2023-05-20T11:25:24.234Z,28.07
2023-05-20T11:27:52.240Z,28.23
2023-05-20T11:30:20.698Z,28.36
2023-05-20T11:33:01.140Z,28.39
2023-05-20T11:35:32.554Z,28.53
2023-05-20T11:38:07.903Z,28.81
2023-05-20T11:40:49.206Z,29.05
2023-05-20T11:43:18.165Z,29.07
2023-05-20T11:45:46.680Z,28.80
2023-05-20T11:48:15.856Z,28.50
2023-05-20T11:50:43.964Z,28.32
2023-05-20T11:53:12.251Z,28.38
2023-05-20T11:55:59.654Z,28.46
2023-05-20T11:58:29.631Z,28.63
2023-05-20T12:01:02.314Z,28.77
2023-05-20T12:03:37.174Z,28.91
2023-05-20T12:06:04.575Z,29.02
2023-05-20T12:08:32.174Z,29.06
2023-05-20T12:10:59.316Z,29.11
2023-05-20T12:13:26.757Z,29.15
2023-05-20T12:15:53.814Z,29.24
2023-05-20T12:18:20.989Z,29.42
2023-05-20T12:20:48.063Z,29.55
2023-05-20T12:23:15.302Z,29.62
2023-05-20T12:25:42.499Z,29.62
2023-05-20T12:28:09.538Z,29.66
2023-05-20T12:30:36.771Z,29.60
2023-05-20T12:33:04.249Z,29.37
2023-05-20T12:35:41.820Z,29.25
2023-05-20T12:38:09.134Z,29.26
2023-05-20T12:40:36.850Z,29.38
2023-05-20T12:43:04.905Z,29.45
2023-05-20T12:45:31.999Z,29.50
2023-05-20T12:47:59.364Z,29.55
2023-05-20T12:50:27.084Z,29.63
2023-05-20T12:52:54.170Z,29.71
2023-05-20T12:55:21.418Z,29.46
2023-05-20T12:57:48.571Z,29.16
2023-05-20T13:00:16.731Z,29.07
2023-05-20T13:02:44.596Z,29.16
2023-05-20T13:05:11.816Z,29.34
2023-05-20T13:07:39.038Z,29.41
2023-05-20T13:10:07.587Z,29.43
2023-05-20T13:12:35.453Z,29.44
2023-05-20T13:15:02.720Z,29.35
2023-05-20T13:17:29.812Z,29.16
2023-05-20T13:19:59.301Z,29.10
2023-05-20T13:22:31.237Z,29.22
2023-05-20T13:24:59.373Z,29.31
2023-05-20T13:27:27.144Z,29.33
2023-05-20T13:29:54.333Z,29.34
2023-05-20T13:32:21.662Z,29.34
2023-05-20T13:34:49.042Z,29.40
2023-05-20T13:37:16.264Z,29.51
2023-05-20T13:39:43.575Z,29.60
2023-05-20T13:42:10.688Z,29.61
2023-05-20T13:44:37.954Z,29.53
2023-05-20T13:47:05.238Z,29.46
2023-05-20T13:49:32.406Z,29.41
2023-05-20T13:51:59.596Z,29.37
2023-05-20T13:54:26.653Z,29.31
2023-05-20T13:56:53.676Z,29.17
2023-05-20T13:59:20.700Z,29.01
2023-05-20T14:01:47.817Z,28.95
2023-05-20T14:04:14.906Z,29.01
2023-05-20T14:06:42.376Z,29.10
2023-05-20T14:09:09.475Z,29.16
2023-05-20T14:11:37.071Z,29.13
2023-05-20T14:14:04.309Z,29.13
2023-05-20T14:16:31.846Z,29.09
2023-05-20T14:18:59.173Z,29.00
2023-05-20T14:21:26.466Z,29.01
2023-05-20T14:23:53.577Z,29.02
2023-05-20T14:26:21.865Z,28.99
2023-05-20T14:28:49.434Z,28.94
2023-05-20T14:31:16.677Z,28.85
2023-05-20T14:33:43.728Z,28.77
2023-05-20T14:36:10.968Z,28.74
2023-05-20T14:38:38.050Z,28.67
2023-05-20T14:41:05.143Z,28.52
2023-05-20T14:43:32.466Z,28.38
2023-05-20T14:45:59.545Z,28.27
2023-05-20T14:48:26.774Z,28.31
2023-05-20T14:50:53.816Z,28.40
2023-05-20T14:53:20.915Z,28.40
2023-05-20T14:55:48.012Z,28.38
2023-05-20T14:58:15.102Z,28.40
2023-05-20T15:00:42.213Z,28.42
2023-05-20T15:03:09.443Z,28.47
2023-05-20T15:05:36.742Z,28.50
2023-05-20T15:08:04.062Z,28.37
2023-05-20T15:10:31.097Z,28.29
2023-05-20T15:12:58.172Z,28.31
2023-05-20T15:15:25.334Z,28.24
2023-05-20T15:17:52.465Z,28.16
2023-05-20T15:20:19.677Z,28.13
2023-05-20T15:22:48.494Z,28.12
2023-05-20T15:25:15.563Z,28.07
2023-05-20T15:27:42.678Z,28.06
2023-05-20T15:30:10.420Z,28.05
2023-05-20T15:32:37.830Z,27.99
2023-05-20T15:35:05.642Z,27.87
2023-05-20T15:37:32.683Z,27.69
2023-05-20T15:39:59.685Z,27.55
2023-05-20T15:42:27.125Z,27.45
2023-05-20T15:44:54.248Z,27.33
2023-05-20T15:47:21.786Z,27.14
2023-05-20T15:49:49.023Z,26.96
2023-05-20T15:52:16.362Z,26.78
2023-05-20T15:54:43.470Z,26.61
2023-05-20T15:57:10.992Z,26.43
2023-05-20T15:59:38.141Z,26.29
2023-05-20T16:02:05.534Z,26.14
2023-05-20T16:04:33.025Z,25.96
2023-05-20T16:07:00.217Z,25.77
2023-05-20T16:09:27.868Z,25.62
2023-05-20T16:11:56.329Z,25.49
2023-05-20T16:14:25.408Z,25.39
2023-05-20T16:16:53.028Z,25.36
2023-05-20T16:19:20.314Z,25.33
2023-05-20T16:21:47.461Z,25.28
2023-05-20T16:24:17.891Z,25.22
2023-05-20T16:26:44.979Z,25.15
2023-05-20T16:29:13.001Z,25.07
2023-05-20T16:31:41.654Z,25.02
2023-05-20T16:34:08.760Z,24.95
2023-05-20T16:36:36.841Z,24.87
2023-05-20T16:39:04.248Z,24.78
2023-05-20T16:41:31.644Z,24.72
2023-05-20T16:43:59.238Z,24.60
2023-05-20T16:46:26.615Z,24.38
2023-05-20T16:48:53.728Z,24.14
2023-05-20T16:51:20.856Z,23.95
2023-05-20T16:53:47.861Z,23.77
2023-05-20T16:56:15.139Z,23.58
2023-05-20T16:58:42.300Z,23.44
2023-05-20T17:01:09.381Z,23.30
2023-05-20T17:03:36.617Z,23.17
2023-05-20T17:06:03.826Z,23.03
2023-05-20T17:08:30.952Z,22.90
2023-05-20T17:10:58.066Z,22.75
2023-05-20T17:13:25.259Z,22.62
2023-05-20T17:15:52.280Z,22.50
2023-05-20T17:18:19.340Z,22.40
2023-05-20T17:20:46.624Z,22.27
2023-05-20T17:23:15.061Z,22.06
2023-05-20T17:25:42.144Z,21.97
2023-05-20T17:28:09.405Z,21.99
2023-05-20T17:30:37.041Z,22.04
2023-05-20T17:33:04.437Z,22.10
2023-05-20T17:35:31.922Z,22.14
2023-05-20T17:37:58.971Z,22.15
2023-05-20T17:40:26.085Z,22.15
2023-05-20T17:42:53.259Z,22.16
2023-05-20T17:45:20.365Z,22.17
2023-05-20T17:47:47.478Z,22.16
2023-05-20T17:50:15.586Z,22.14
2023-05-20T17:52:42.698Z,22.08
2023-05-20T17:55:10.000Z,22.01
2023-05-20T17:57:37.143Z,21.93
2023-05-20T18:00:05.882Z,21.85
2023-05-20T18:02:32.933Z,21.75
2023-05-20T18:05:00.156Z,21.66
2023-05-20T18:07:28.143Z,21.56
2023-05-20T18:09:55.465Z,21.46
2023-05-20T18:12:22.578Z,21.38
2023-05-20T18:14:49.609Z,21.29
2023-05-20T18:17:16.944Z,21.20
2023-05-20T18:19:44.015Z,21.11
2023-05-20T18:22:11.165Z,21.05
2023-05-20T18:24:38.189Z,21.01
2023-05-20T18:27:05.849Z,20.98
2023-05-20T18:29:33.067Z,20.92
2023-05-20T18:32:00.299Z,20.89
2023-05-20T18:34:28.435Z,20.84
2023-05-20T18:36:55.493Z,20.79
2023-05-20T18:39:22.641Z,20.75
2023-05-20T18:41:49.804Z,20.71
2023-05-20T18:44:18.542Z,20.66
2023-05-20T18:46:46.680Z,20.61
2023-05-20T18:49:14.458Z,20.55
2023-05-20T18:51:41.721Z,20.48
2023-05-20T18:54:08.788Z,20.41
2023-05-20T18:56:36.082Z,20.35
2023-05-20T18:59:03.384Z,20.30
2023-05-20T19:01:30.639Z,20.24
2023-05-20T19:03:57.866Z,20.17
2023-05-20T19:06:25.039Z,20.10
2023-05-20T19:08:52.100Z,20.01
2023-05-20T19:11:19.217Z,19.94
2023-05-20T19:13:46.594Z,19.88
2023-05-20T19:16:13.755Z,19.85
2023-05-20T19:18:41.214Z,19.81
2023-05-20T19:21:08.324Z,19.75
2023-05-20T19:23:38.336Z,19.71
2023-05-20T19:26:05.736Z,19.66
2023-05-20T19:28:32.762Z,19.62
2023-05-20T19:31:00.034Z,19.61
2023-05-20T19:33:27.269Z,19.61
2023-05-20T19:35:54.574Z,19.62
2023-05-20T19:38:21.770Z,19.63
2023-05-20T19:40:48.864Z,19.63
2023-05-20T19:43:16.131Z,19.63
2023-05-20T19:45:43.201Z,19.62
2023-05-20T19:48:10.452Z,19.63
2023-05-20T19:50:38.215Z,19.64
2023-05-20T19:53:07.533Z,19.65
2023-05-20T19:55:36.352Z,19.64
2023-05-20T19:58:03.791Z,19.63
2023-05-20T20:00:31.089Z,19.62
2023-05-20T20:02:59.561Z,19.61
2023-05-20T20:05:26.949Z,19.60
2023-05-20T20:07:54.307Z,19.59
2023-05-20T20:10:21.553Z,19.56
2023-05-20T20:12:48.993Z,19.52
2023-05-20T20:15:17.125Z,19.47
2023-05-20T20:17:45.800Z,19.41
2023-05-20T20:20:14.487Z,19.36
2023-05-20T20:22:42.041Z,19.34
2023-05-20T20:25:09.188Z,19.31
2023-05-20T20:27:36.267Z,19.27
2023-05-20T20:30:03.625Z,19.23
2023-05-20T20:32:30.819Z,19.18
2023-05-20T20:34:58.354Z,19.12
2023-05-20T20:37:27.034Z,19.07
2023-05-20T20:39:57.419Z,19.03
2023-05-20T20:42:24.503Z,19.00
2023-05-20T20:44:52.740Z,18.98
2023-05-20T20:47:19.901Z,18.95
2023-05-20T20:49:46.922Z,18.94
2023-05-20T20:52:14.002Z,18.92
2023-05-20T20:54:43.314Z,18.89
2023-05-20T20:57:11.703Z,18.86
2023-05-20T20:59:40.023Z,18.83
2023-05-20T21:02:07.062Z,18.82
2023-05-20T21:04:34.342Z,18.81
2023-05-20T21:07:02.340Z,18.77
2023-05-20T21:09:29.489Z,18.73
2023-05-20T21:11:57.457Z,18.69
2023-05-20T21:14:25.498Z,18.64
2023-05-20T21:16:52.594Z,18.59
2023-05-20T21:19:19.935Z,18.55
2023-05-20T21:21:47.148Z,18.48
2023-05-20T21:24:14.246Z,18.42
2023-05-20T21:26:41.284Z,18.36
2023-05-20T21:29:10.221Z,18.27
2023-05-20T21:31:37.336Z,18.19
2023-05-20T21:34:04.608Z,18.12
2023-05-20T21:36:32.623Z,18.08
2023-05-20T21:38:59.753Z,18.04
2023-05-20T21:41:27.524Z,18.00
2023-05-20T21:43:54.631Z,17.95
2023-05-20T21:47:20.783Z,17.94
2023-05-20T21:49:48.526Z,17.89
2023-05-20T21:52:15.680Z,17.85
2023-05-20T21:54:42.838Z,17.80
2023-05-20T21:57:09.867Z,17.76
2023-05-20T21:59:36.952Z,17.71
2023-05-20T22:02:04.209Z,17.66
2023-05-20T22:04:33.574Z,17.60
2023-05-20T22:07:00.801Z,17.55
2023-05-20T22:09:27.986Z,17.50
2023-05-20T22:11:55.429Z,17.45
2023-05-20T22:14:23.874Z,17.41
2023-05-20T22:16:51.055Z,17.37
2023-05-20T22:19:18.255Z,17.33
2023-05-20T22:21:50.667Z,17.28
2023-05-20T22:24:18.219Z,17.25
2023-05-20T22:26:45.373Z,17.21
2023-05-20T22:29:12.570Z,17.18
2023-05-20T22:31:39.896Z,17.15
2023-05-20T22:34:07.086Z,17.12
2023-05-20T22:36:34.454Z,17.09
2023-05-20T22:39:02.611Z,17.06
2023-05-20T22:41:29.719Z,17.04
2023-05-20T22:43:59.513Z,17.02
2023-05-20T22:46:26.770Z,16.99
2023-05-20T22:48:54.709Z,16.97
2023-05-20T22:51:21.819Z,16.93
2023-05-20T22:53:49.028Z,16.88
2023-05-20T22:56:16.301Z,16.83
2023-05-20T22:58:43.915Z,16.77
2023-05-20T23:01:11.070Z,16.73
2023-05-20T23:03:38.338Z,16.68
2023-05-20T23:06:05.738Z,16.64
2023-05-20T23:08:32.849Z,16.62
2023-05-20T23:10:59.938Z,16.60
2023-05-20T23:13:27.078Z,16.59
2023-05-20T23:15:54.585Z,16.59
2023-05-20T23:18:21.780Z,16.58
2023-05-20T23:20:49.254Z,16.57
2023-05-20T23:23:17.160Z,16.56
2023-05-20T23:25:45.858Z,16.54
2023-05-20T23:28:13.165Z,16.52
2023-05-20T23:30:40.301Z,16.51
2023-05-20T23:33:07.548Z,16.49
2023-05-20T23:35:34.966Z,16.49
2023-05-20T23:38:02.521Z,16.51
2023-05-20T23:40:29.608Z,16.53
2023-05-20T23:42:56.652Z,16.55
2023-05-20T23:45:23.685Z,16.57
2023-05-20T23:47:50.858Z,16.57
2023-05-20T23:50:18.043Z,16.58
2023-05-20T23:52:46.483Z,16.58
2023-05-20T23:55:14.534Z,16.57
2023-05-20T23:57:41.749Z,16.54
